sensor_id;sensor_type;location;lat;lon;timestamp;pressure;altitude;pressure_sealevel;temperature;humidity
68489;BME280;55481;48.764;8.936;2024-02-23T00:01:35;95040;;;4.9;81
68489;BME280;55481;48.764;8.936;2024-02-23T00:04:06;95040;;;5;80.5
68489;BME280;55481;48.764;8.936;2024-02-23T00:06:43;95050;;;5;80.5
68489;BME280;55481;48.764;8.936;2024-02-23T00:09:14;95050;;;5.1;80.5
68489;BME280;55481;48.764;8.936;2024-02-23T00:14:29;95040;;;5.1;80.5
68489;BME280;55481;48.764;8.936;2024-02-23T00:16:39;95040;;;5.1;80.5
68489;BME280;55481;48.764;8.936;2024-02-23T00:19:09;95050;;;5.1;80
68489;BME280;55481;48.764;8.936;2024-02-23T00:21:40;95060;;;5.1;80.5
68489;BME280;55481;48.764;8.936;2024-02-23T00:24:11;95070;;;5.2;80.5
68489;BME280;55481;48.764;8.936;2024-02-23T00:26:43;95070;;;5.2;80
68489;BME280;55481;48.764;8.936;2024-02-23T00:29:13;95070;;;5.2;80
68489;BME280;55481;48.764;8.936;2024-02-23T00:31:44;95070;;;5.2;80
68489;BME280;55481;48.764;8.936;2024-02-23T00:34:15;95080;;;5.3;80
68489;BME280;55481;48.764;8.936;2024-02-23T00:36:53;95090;;;5.3;80
68489;BME280;55481;48.764;8.936;2024-02-23T00:41:48;95100;;;5.3;80
68489;BME280;55481;48.764;8.936;2024-02-23T00:44:19;95090;;;5.3;80
68489;BME280;55481;48.764;8.936;2024-02-23T00:46:50;95080;;;5.3;80
68489;BME280;55481;48.764;8.936;2024-02-23T00:49:21;95070;;;5.3;80
68489;BME280;55481;48.764;8.936;2024-02-23T00:51:52;95070;;;5.4;80
68489;BME280;55481;48.764;8.936;2024-02-23T00:54:23;95080;;;5.4;80
68489;BME280;55481;48.764;8.936;2024-02-23T00:56:54;95100;;;5.4;80
68489;BME280;55481;48.764;8.936;2024-02-23T01:04:20;95100;;;5.4;80
68489;BME280;55481;48.764;8.936;2024-02-23T01:06:50;95090;;;5.3;80
68489;BME280;55481;48.764;8.936;2024-02-23T01:09:22;95100;;;5.3;80
68489;BME280;55481;48.764;8.936;2024-02-23T01:11:52;95100;;;5.3;80
68489;BME280;55481;48.764;8.936;2024-02-23T01:19:25;95080;;;5.4;80
68489;BME280;55481;48.764;8.936;2024-02-23T01:21:56;95090;;;5.4;80
68489;BME280;55481;48.764;8.936;2024-02-23T01:26:57;95100;;;5.3;80
68489;BME280;55481;48.764;8.936;2024-02-23T01:29:27;95110;;;5.4;80
68489;BME280;55481;48.764;8.936;2024-02-23T01:32:12;95110;;;5.4;80
68489;BME280;55481;48.764;8.936;2024-02-23T01:34:42;95110;;;5.4;80
68489;BME280;55481;48.764;8.936;2024-02-23T01:37:12;95110;;;5.4;80
68489;BME280;55481;48.764;8.936;2024-02-23T01:42:06;95120;;;5.4;80
68489;BME280;55481;48.764;8.936;2024-02-23T01:44:37;95130;;;5.4;80
68489;BME280;55481;48.764;8.936;2024-02-23T01:47:08;95130;;;5.3;80
68489;BME280;55481;48.764;8.936;2024-02-23T01:52:17;95130;;;5.4;80
68489;BME280;55481;48.764;8.936;2024-02-23T01:54:46;95130;;;5.4;80
68489;BME280;55481;48.764;8.936;2024-02-23T01:59:39;95140;;;5.4;80
68489;BME280;55481;48.764;8.936;2024-02-23T02:02:17;95130;;;5.3;80
68489;BME280;55481;48.764;8.936;2024-02-23T02:04:48;95130;;;5.3;80
68489;BME280;55481;48.764;8.936;2024-02-23T02:12:28;95140;;;5.3;80
68489;BME280;55481;48.764;8.936;2024-02-23T02:14:51;95140;;;5.3;80
68489;BME280;55481;48.764;8.936;2024-02-23T02:17:15;95150;;;5.3;80
68489;BME280;55481;48.764;8.936;2024-02-23T02:19:46;95140;;;5.3;80
68489;BME280;55481;48.764;8.936;2024-02-23T02:22:17;95150;;;5.3;80
68489;BME280;55481;48.764;8.936;2024-02-23T02:24:48;95150;;;5.3;80
68489;BME280;55481;48.764;8.936;2024-02-23T02:27:19;95150;;;5.3;80
68489;BME280;55481;48.764;8.936;2024-02-23T02:29:57;95150;;;5.3;80
68489;BME280;55481;48.764;8.936;2024-02-23T02:32:21;95150;;;5.3;80
68489;BME280;55481;48.764;8.936;2024-02-23T02:37:23;95160;;;5.2;80
68489;BME280;55481;48.764;8.936;2024-02-23T02:39:54;95150;;;5.2;80
68489;BME280;55481;48.764;8.936;2024-02-23T02:42:25;95150;;;5.2;80
68489;BME280;55481;48.764;8.936;2024-02-23T02:44:55;95140;;;5.2;80
68489;BME280;55481;48.764;8.936;2024-02-23T02:47:27;95150;;;5.2;80
68489;BME280;55481;48.764;8.936;2024-02-23T02:49:58;95140;;;5.2;80
68489;BME280;55481;48.764;8.936;2024-02-23T02:54:59;95150;;;5.1;80
68489;BME280;55481;48.764;8.936;2024-02-23T02:57:36;95150;;;5.2;80
68489;BME280;55481;48.764;8.936;2024-02-23T03:00:09;95160;;;5.1;80
68489;BME280;55481;48.764;8.936;2024-02-23T03:02:32;95160;;;5.1;80
68489;BME280;55481;48.764;8.936;2024-02-23T03:05:09;95160;;;5.1;80
68489;BME280;55481;48.764;8.936;2024-02-23T03:07:46;95150;;;5.1;80
68489;BME280;55481;48.764;8.936;2024-02-23T03:12:40;95150;;;5;80
68489;BME280;55481;48.764;8.936;2024-02-23T03:17:40;95140;;;4.9;80
68489;BME280;55481;48.764;8.936;2024-02-23T03:20:11;95140;;;4.9;80
68489;BME280;55481;48.764;8.936;2024-02-23T03:22:41;95130;;;4.9;80
68489;BME280;55481;48.764;8.936;2024-02-23T03:25:11;95140;;;4.9;80
68489;BME280;55481;48.764;8.936;2024-02-23T03:27:41;95140;;;4.9;80
68489;BME280;55481;48.764;8.936;2024-02-23T03:30:23;95150;;;4.8;80
68489;BME280;55481;48.764;8.936;2024-02-23T03:35:24;95140;;;4.7;80
68489;BME280;55481;48.764;8.936;2024-02-23T03:37:54;95130;;;4.7;80
68489;BME280;55481;48.764;8.936;2024-02-23T03:40:14;95130;;;4.7;80.5
68489;BME280;55481;48.764;8.936;2024-02-23T03:42:44;95150;;;4.7;80
68489;BME280;55481;48.764;8.936;2024-02-23T03:45:16;95150;;;4.7;80
68489;BME280;55481;48.764;8.936;2024-02-23T03:56:37;95160;;;4.7;81
68489;BME280;55481;48.764;8.936;2024-02-23T03:59:07;95170;;;4.6;81
68489;BME280;55481;48.764;8.936;2024-02-23T04:01:38;95170;;;4.5;81
68489;BME280;55481;48.764;8.936;2024-02-23T04:04:08;95160;;;4.5;81
68489;BME280;55481;48.764;8.936;2024-02-23T04:16:48;95160;;;4.6;80
68489;BME280;55481;48.764;8.936;2024-02-23T04:19:20;95160;;;4.5;80
68489;BME280;55481;48.764;8.936;2024-02-23T04:21:50;95160;;;4.5;80
68489;BME280;55481;48.764;8.936;2024-02-23T04:24:21;95160;;;4.4;80.5
68489;BME280;55481;48.764;8.936;2024-02-23T04:26:52;95160;;;4.4;80.5
68489;BME280;55481;48.764;8.936;2024-02-23T04:29:23;95160;;;4.5;80
68489;BME280;55481;48.764;8.936;2024-02-23T04:31:47;95150;;;4.4;80
68489;BME280;55481;48.764;8.936;2024-02-23T04:39:19;95160;;;4.2;80.5
68489;BME280;55481;48.764;8.936;2024-02-23T04:41:50;95170;;;4.3;80.5
68489;BME280;55481;48.764;8.936;2024-02-23T04:44:21;95170;;;4.3;80
68489;BME280;55481;48.764;8.936;2024-02-23T04:49:28;95150;;;4.3;80
68489;BME280;55481;48.764;8.936;2024-02-23T04:52:00;95150;;;4.2;80
68489;BME280;55481;48.764;8.936;2024-02-23T04:59:38;95130;;;4.2;80
68489;BME280;55481;48.764;8.936;2024-02-23T05:02:08;95130;;;4.1;80
68489;BME280;55481;48.764;8.936;2024-02-23T05:04:39;95130;;;4.1;80
68489;BME280;55481;48.764;8.936;2024-02-23T05:07:09;95130;;;4.1;80
68489;BME280;55481;48.764;8.936;2024-02-23T05:09:34;95130;;;4.1;80
68489;BME280;55481;48.764;8.936;2024-02-23T05:12:11;95120;;;4.1;80
68489;BME280;55481;48.764;8.936;2024-02-23T05:17:06;95130;;;4.1;80
68489;BME280;55481;48.764;8.936;2024-02-23T05:22:15;95120;;;4.1;80
68489;BME280;55481;48.764;8.936;2024-02-23T05:24:45;95130;;;4.1;80
68489;BME280;55481;48.764;8.936;2024-02-23T05:27:16;95140;;;4.1;80
68489;BME280;55481;48.764;8.936;2024-02-23T05:29:45;95150;;;4.2;80
68489;BME280;55481;48.764;8.936;2024-02-23T05:32:16;95150;;;4.1;80
68489;BME280;55481;48.764;8.936;2024-02-23T05:34:46;95160;;;4.2;80
68489;BME280;55481;48.764;8.936;2024-02-23T05:37:17;95160;;;4.1;80
68489;BME280;55481;48.764;8.936;2024-02-23T05:39:47;95160;;;4.1;80
68489;BME280;55481;48.764;8.936;2024-02-23T05:47:20;95170;;;3.9;80
68489;BME280;55481;48.764;8.936;2024-02-23T05:49:51;95170;;;3.8;80
68489;BME280;55481;48.764;8.936;2024-02-23T05:54:45;95170;;;3.8;80
68489;BME280;55481;48.764;8.936;2024-02-23T05:57:16;95170;;;3.9;80
68489;BME280;55481;48.764;8.936;2024-02-23T05:59:46;95170;;;3.9;80
68489;BME280;55481;48.764;8.936;2024-02-23T06:02:17;95170;;;3.9;80
68489;BME280;55481;48.764;8.936;2024-02-23T06:04:54;95180;;;3.9;80
68489;BME280;55481;48.764;8.936;2024-02-23T06:07:31;95180;;;3.9;80
68489;BME280;55481;48.764;8.936;2024-02-23T06:09:55;95180;;;3.8;80
68489;BME280;55481;48.764;8.936;2024-02-23T06:12:18;95190;;;3.8;80
68489;BME280;55481;48.764;8.936;2024-02-23T06:14:50;95190;;;3.8;80
68489;BME280;55481;48.764;8.936;2024-02-23T06:17:20;95200;;;3.8;79.5
68489;BME280;55481;48.764;8.936;2024-02-23T06:19:51;95200;;;3.8;79.5
68489;BME280;55481;48.764;8.936;2024-02-23T06:24:46;95200;;;3.8;79.5
68489;BME280;55481;48.764;8.936;2024-02-23T06:27:16;95210;;;3.7;79.5
68489;BME280;55481;48.764;8.936;2024-02-23T06:34:49;95210;;;3.6;80
68489;BME280;55481;48.764;8.936;2024-02-23T06:37:20;95210;;;3.7;80
68489;BME280;55481;48.764;8.936;2024-02-23T06:42:21;95200;;;3.7;80
68489;BME280;55481;48.764;8.936;2024-02-23T06:44:52;95200;;;3.8;80
68489;BME280;55481;48.764;8.936;2024-02-23T06:50:06;95200;;;3.9;79.5
68489;BME280;55481;48.764;8.936;2024-02-23T06:52:36;95200;;;3.9;80
68489;BME280;55481;48.764;8.936;2024-02-23T06:55:07;95210;;;4;79.5
68489;BME280;55481;48.764;8.936;2024-02-23T06:57:38;95200;;;4;79.5
68489;BME280;55481;48.764;8.936;2024-02-23T07:02:33;95200;;;4.1;79.5
68489;BME280;55481;48.764;8.936;2024-02-23T07:05:05;95210;;;4.2;79.5
68489;BME280;55481;48.764;8.936;2024-02-23T07:07:35;95220;;;4.2;79.5
68489;BME280;55481;48.764;8.936;2024-02-23T07:10:07;95220;;;4.2;79.5
68489;BME280;55481;48.764;8.936;2024-02-23T07:12:37;95230;;;4.3;79.5
68489;BME280;55481;48.764;8.936;2024-02-23T07:15:08;95220;;;4.3;79.5
68489;BME280;55481;48.764;8.936;2024-02-23T07:17:39;95220;;;4.3;79.5
68489;BME280;55481;48.764;8.936;2024-02-23T07:20:09;95230;;;4.4;79.5
68489;BME280;55481;48.764;8.936;2024-02-23T07:22:43;95220;;;4.4;79.5
68489;BME280;55481;48.764;8.936;2024-02-23T07:25:15;95230;;;4.3;80
68489;BME280;55481;48.764;8.936;2024-02-23T07:27:50;95230;;;4.3;79.5
68489;BME280;55481;48.764;8.936;2024-02-23T07:35:21;95230;;;4.4;79.5
68489;BME280;55481;48.764;8.936;2024-02-23T07:37:51;95220;;;4.4;79.5
68489;BME280;55481;48.764;8.936;2024-02-23T07:42:46;95220;;;4.6;79
68489;BME280;55481;48.764;8.936;2024-02-23T07:45:16;95220;;;4.6;79
68489;BME280;55481;48.764;8.936;2024-02-23T07:47:47;95220;;;4.6;79.5
68489;BME280;55481;48.764;8.936;2024-02-23T08:00:13;95210;;;4.2;80
68489;BME280;55481;48.764;8.936;2024-02-23T08:02:44;95220;;;4.1;79.5
68489;BME280;55481;48.764;8.936;2024-02-23T08:05:15;95220;;;4.1;79.5
68489;BME280;55481;48.764;8.936;2024-02-23T08:10:29;95230;;;4.2;79.5
68489;BME280;55481;48.764;8.936;2024-02-23T08:12:59;95230;;;4.2;79.5
68489;BME280;55481;48.764;8.936;2024-02-23T08:15:29;95230;;;4.3;79.5
68489;BME280;55481;48.764;8.936;2024-02-23T08:20:24;95240;;;4.5;79.5
68489;BME280;55481;48.764;8.936;2024-02-23T08:22:55;95230;;;4.4;79.5
68489;BME280;55481;48.764;8.936;2024-02-23T08:25:32;95230;;;4.5;79.5
68489;BME280;55481;48.764;8.936;2024-02-23T08:30:21;95220;;;4.5;79.5
68489;BME280;55481;48.764;8.936;2024-02-23T08:32:51;95220;;;4.4;79.5
68489;BME280;55481;48.764;8.936;2024-02-23T08:35:23;95220;;;4.3;80
68489;BME280;55481;48.764;8.936;2024-02-23T08:37:53;95210;;;4.3;80
68489;BME280;55481;48.764;8.936;2024-02-23T08:40:23;95200;;;4.2;80
68489;BME280;55481;48.764;8.936;2024-02-23T08:42:54;95190;;;4.3;80
68489;BME280;55481;48.764;8.936;2024-02-23T08:45:25;95200;;;4.3;80
68489;BME280;55481;48.764;8.936;2024-02-23T08:55:28;95200;;;4.8;79
68489;BME280;55481;48.764;8.936;2024-02-23T08:58:05;95200;;;4.7;79.5
68489;BME280;55481;48.764;8.936;2024-02-23T09:00:36;95200;;;4.9;79
68489;BME280;55481;48.764;8.936;2024-02-23T09:05:37;95200;;;5;79
68489;BME280;55481;48.764;8.936;2024-02-23T09:08:09;95200;;;5;79
68489;BME280;55481;48.764;8.936;2024-02-23T09:10:39;95200;;;5.2;79
68489;BME280;55481;48.764;8.936;2024-02-23T09:18:05;95200;;;5.8;78
68489;BME280;55481;48.764;8.936;2024-02-23T09:20:35;95210;;;5.8;78
68489;BME280;55481;48.764;8.936;2024-02-23T09:23:06;95210;;;5.6;78.5
68489;BME280;55481;48.764;8.936;2024-02-23T09:25:37;95210;;;5.6;78.5
68489;BME280;55481;48.764;8.936;2024-02-23T09:28:08;95210;;;5.2;79.5
68489;BME280;55481;48.764;8.936;2024-02-23T09:30:39;95220;;;5.6;79.5
68489;BME280;55481;48.764;8.936;2024-02-23T09:33:09;95210;;;5.9;78.5
68489;BME280;55481;48.764;8.936;2024-02-23T09:35:40;95210;;;5.7;79
68489;BME280;55481;48.764;8.936;2024-02-23T09:38:11;95220;;;5.7;79
68489;BME280;55481;48.764;8.936;2024-02-23T09:43:12;95230;;;5.8;79.5
68489;BME280;55481;48.764;8.936;2024-02-23T09:45:44;95220;;;6;79
68489;BME280;55481;48.764;8.936;2024-02-23T09:50:52;95220;;;5.9;79
68489;BME280;55481;48.764;8.936;2024-02-23T09:53:22;95220;;;5.9;79
68489;BME280;55481;48.764;8.936;2024-02-23T09:55:53;95230;;;5.8;79
68489;BME280;55481;48.764;8.936;2024-02-23T09:58:24;95230;;;5.8;79.5
68489;BME280;55481;48.764;8.936;2024-02-23T10:00:56;95230;;;5.9;79.5
68489;BME280;55481;48.764;8.936;2024-02-23T10:03:27;95230;;;5.6;80
68489;BME280;55481;48.764;8.936;2024-02-23T10:05:57;95230;;;5.4;80
68489;BME280;55481;48.764;8.936;2024-02-23T10:08:21;95230;;;5.3;80
68489;BME280;55481;48.764;8.936;2024-02-23T10:10:52;95230;;;5.2;80.5
68489;BME280;55481;48.764;8.936;2024-02-23T10:13:23;95220;;;5.4;80
68489;BME280;55481;48.764;8.936;2024-02-23T10:15:59;95220;;;5.5;80
68489;BME280;55481;48.764;8.936;2024-02-23T10:18:24;95230;;;5.5;80
68489;BME280;55481;48.764;8.936;2024-02-23T10:20:55;95240;;;5.2;80
68489;BME280;55481;48.764;8.936;2024-02-23T10:23:25;95230;;;5.5;80
68489;BME280;55481;48.764;8.936;2024-02-23T10:31:04;95250;;;5.6;79.5
68489;BME280;55481;48.764;8.936;2024-02-23T10:33:34;95240;;;5.6;79.5
68489;BME280;55481;48.764;8.936;2024-02-23T10:36:06;95250;;;5.9;79.5
68489;BME280;55481;48.764;8.936;2024-02-23T10:41:00;95240;;;6.1;78.5
68489;BME280;55481;48.764;8.936;2024-02-23T10:43:33;95240;;;6.3;79
68489;BME280;55481;48.764;8.936;2024-02-23T10:46:02;95230;;;6.6;78.5
68489;BME280;55481;48.764;8.936;2024-02-23T10:48:32;95230;;;7;77.5
68489;BME280;55481;48.764;8.936;2024-02-23T10:51:03;95230;;;7.3;77
68489;BME280;55481;48.764;8.936;2024-02-23T10:53:34;95230;;;7.3;77
68489;BME280;55481;48.764;8.936;2024-02-23T10:56:04;95230;;;7.9;77
68489;BME280;55481;48.764;8.936;2024-02-23T10:58:36;95220;;;7.6;127.5
68489;BME280;55481;48.764;8.936;2024-02-23T11:01:07;95230;;;7.6;77.5
68489;BME280;55481;48.764;8.936;2024-02-23T11:11:36;95210;;;7.3;78.5
68489;BME280;55481;48.764;8.936;2024-02-23T11:13:52;95200;;;7.2;78.5
68489;BME280;55481;48.764;8.936;2024-02-23T11:16:23;95200;;;7.3;79
68489;BME280;55481;48.764;8.936;2024-02-23T11:19:08;95210;;;7.2;78.5
68489;BME280;55481;48.764;8.936;2024-02-23T11:21:23;95200;;;7;79
68489;BME280;55481;48.764;8.936;2024-02-23T11:26:17;95200;;;7.1;79
68489;BME280;55481;48.764;8.936;2024-02-23T11:28:48;95210;;;7;79
68489;BME280;55481;48.764;8.936;2024-02-23T11:31:29;95200;;;7;79.5
68489;BME280;55481;48.764;8.936;2024-02-23T11:36:22;95200;;;7.3;78.5
68489;BME280;55481;48.764;8.936;2024-02-23T11:38:44;95200;;;7;79
68489;BME280;55481;48.764;8.936;2024-02-23T11:41:15;95210;;;6.8;79.5
68489;BME280;55481;48.764;8.936;2024-02-23T11:43:45;95210;;;7.1;79
68489;BME280;55481;48.764;8.936;2024-02-23T11:46:16;95210;;;7.1;78.5
68489;BME280;55481;48.764;8.936;2024-02-23T11:48:47;95200;;;7.1;79
68489;BME280;55481;48.764;8.936;2024-02-23T11:51:18;95200;;;7.4;78
68489;BME280;55481;48.764;8.936;2024-02-23T11:53:49;95200;;;7.4;78
68489;BME280;55481;48.764;8.936;2024-02-23T11:56:19;95200;;;7.2;78.5
68489;BME280;55481;48.764;8.936;2024-02-23T12:04:04;95180;;;8.1;78
68489;BME280;55481;48.764;8.936;2024-02-23T12:09:00;95170;;;8.6;76
68489;BME280;55481;48.764;8.936;2024-02-23T12:14:01;95150;;;11.5;72
68489;BME280;55481;48.764;8.936;2024-02-23T12:16:32;95160;;;10.3;74
68489;BME280;55481;48.764;8.936;2024-02-23T12:19:03;95170;;;8.9;77
68489;BME280;55481;48.764;8.936;2024-02-23T12:21:34;95160;;;8.4;79.5
68489;BME280;55481;48.764;8.936;2024-02-23T12:24:05;95170;;;8.3;79
68489;BME280;55481;48.764;8.936;2024-02-23T12:26:36;95170;;;7.8;79.5
68489;BME280;55481;48.764;8.936;2024-02-23T12:29:06;95160;;;7.6;80.5
68489;BME280;55481;48.764;8.936;2024-02-23T12:31:44;95160;;;7.6;80
68489;BME280;55481;48.764;8.936;2024-02-23T12:34:16;95170;;;7.4;80
68489;BME280;55481;48.764;8.936;2024-02-23T12:41:48;95180;;;7.2;79.5
68489;BME280;55481;48.764;8.936;2024-02-23T12:44:19;95170;;;7.3;79
68489;BME280;55481;48.764;8.936;2024-02-23T12:46:48;95170;;;7.2;79
68489;BME280;55481;48.764;8.936;2024-02-23T12:49:13;95170;;;7.2;79
68489;BME280;55481;48.764;8.936;2024-02-23T12:51:43;95160;;;7.2;79
68489;BME280;55481;48.764;8.936;2024-02-23T12:54:14;95170;;;7.2;79
68489;BME280;55481;48.764;8.936;2024-02-23T12:56:45;95170;;;7.2;78.5
68489;BME280;55481;48.764;8.936;2024-02-23T12:59:23;95170;;;7.3;78.5
68489;BME280;55481;48.764;8.936;2024-02-23T13:04:18;95170;;;7.2;78.5
68489;BME280;55481;48.764;8.936;2024-02-23T13:06:49;95170;;;7.3;78.5
68489;BME280;55481;48.764;8.936;2024-02-23T13:09:20;95170;;;7.2;78
68489;BME280;55481;48.764;8.936;2024-02-23T13:11:58;95170;;;7.3;78.5
68489;BME280;55481;48.764;8.936;2024-02-23T13:14:22;95180;;;7.3;78
68489;BME280;55481;48.764;8.936;2024-02-23T13:16:53;95180;;;7.4;78
68489;BME280;55481;48.764;8.936;2024-02-23T13:19:31;95180;;;7.5;77.5
68489;BME280;55481;48.764;8.936;2024-02-23T13:24:26;95170;;;7.2;78.5
68489;BME280;55481;48.764;8.936;2024-02-23T13:26:57;95170;;;7.3;78
68489;BME280;55481;48.764;8.936;2024-02-23T13:29:28;95170;;;7.2;78
68489;BME280;55481;48.764;8.936;2024-02-23T13:31:59;95160;;;7.2;78
68489;BME280;55481;48.764;8.936;2024-02-23T13:34:30;95170;;;7.2;78
68489;BME280;55481;48.764;8.936;2024-02-23T13:37:01;95160;;;7.3;78
68489;BME280;55481;48.764;8.936;2024-02-23T13:39:39;95160;;;7.5;77.5
68489;BME280;55481;48.764;8.936;2024-02-23T13:42:03;95160;;;7.3;77.5
68489;BME280;55481;48.764;8.936;2024-02-23T13:44:40;95160;;;7.4;77.5
68489;BME280;55481;48.764;8.936;2024-02-23T13:49:36;95140;;;7.8;77
68489;BME280;55481;48.764;8.936;2024-02-23T13:52:06;95140;;;7.9;76.5
68489;BME280;55481;48.764;8.936;2024-02-23T13:54:38;95130;;;7.9;76.5
68489;BME280;55481;48.764;8.936;2024-02-23T13:57:09;95120;;;8;77
68489;BME280;55481;48.764;8.936;2024-02-23T13:59:40;95110;;;8;76.5
68489;BME280;55481;48.764;8.936;2024-02-23T14:02:11;95110;;;8;77
68489;BME280;55481;48.764;8.936;2024-02-23T14:04:42;95110;;;8.1;127.5
68489;BME280;55481;48.764;8.936;2024-02-23T14:07:13;95110;;;8.2;76.5
68489;BME280;55481;48.764;8.936;2024-02-23T14:09:50;95100;;;8.4;76.5
68489;BME280;55481;48.764;8.936;2024-02-23T14:14:46;95090;;;8.9;75
68489;BME280;55481;48.764;8.936;2024-02-23T14:17:17;95090;;;8.6;76
68489;BME280;55481;48.764;8.936;2024-02-23T14:19:47;95090;;;8.2;77
68489;BME280;55481;48.764;8.936;2024-02-23T14:22:19;95100;;;8.3;77
68489;BME280;55481;48.764;8.936;2024-02-23T14:24:50;95090;;;8.1;77
68489;BME280;55481;48.764;8.936;2024-02-23T14:27:21;95090;;;8;77.5
68489;BME280;55481;48.764;8.936;2024-02-23T14:29:51;95090;;;8;77.5
68489;BME280;55481;48.764;8.936;2024-02-23T14:32:22;95090;;;8.2;77
68489;BME280;55481;48.764;8.936;2024-02-23T14:34:53;95090;;;8.1;77
68489;BME280;55481;48.764;8.936;2024-02-23T14:37:24;95090;;;7.9;77.5
68489;BME280;55481;48.764;8.936;2024-02-23T14:40:02;95090;;;7.8;77.5
68489;BME280;55481;48.764;8.936;2024-02-23T14:44:57;95100;;;7.7;77.5
68489;BME280;55481;48.764;8.936;2024-02-23T14:47:28;95100;;;7.6;77.5
68489;BME280;55481;48.764;8.936;2024-02-23T14:50:00;95100;;;7.7;77
68489;BME280;55481;48.764;8.936;2024-02-23T14:52:30;95100;;;7.6;77.5
68489;BME280;55481;48.764;8.936;2024-02-23T14:55:01;95100;;;7.5;77.5
68489;BME280;55481;48.764;8.936;2024-02-23T14:57:32;95100;;;7.5;77.5
68489;BME280;55481;48.764;8.936;2024-02-23T15:00:10;95110;;;7.5;77.5
68489;BME280;55481;48.764;8.936;2024-02-23T15:02:34;95100;;;7.4;77.5
68489;BME280;55481;48.764;8.936;2024-02-23T15:05:12;95110;;;7.4;77.5
68489;BME280;55481;48.764;8.936;2024-02-23T15:15:15;95120;;;7.2;77.5
68489;BME280;55481;48.764;8.936;2024-02-23T15:17:46;95120;;;7;78
68489;BME280;55481;48.764;8.936;2024-02-23T15:22:40;95120;;;7.1;77.5
68489;BME280;55481;48.764;8.936;2024-02-23T15:25:11;95120;;;7.3;77
68489;BME280;55481;48.764;8.936;2024-02-23T15:27:42;95120;;;7.5;77
68489;BME280;55481;48.764;8.936;2024-02-23T15:30:19;95110;;;8.1;75.5
68489;BME280;55481;48.764;8.936;2024-02-23T15:32:50;95110;;;8.4;75
68489;BME280;55481;48.764;8.936;2024-02-23T15:35:20;95110;;;8.6;75
68489;BME280;55481;48.764;8.936;2024-02-23T15:40:15;95100;;;8.9;74
68489;BME280;55481;48.764;8.936;2024-02-23T15:42:46;95090;;;8.4;75
68489;BME280;55481;48.764;8.936;2024-02-23T15:45:17;95100;;;7.3;77.5
68489;BME280;55481;48.764;8.936;2024-02-23T15:47:47;95100;;;6.7;78.5
68489;BME280;55481;48.764;8.936;2024-02-23T15:50:18;95110;;;6.3;79
68489;BME280;55481;48.764;8.936;2024-02-23T15:52:51;95110;;;6.2;79
68489;BME280;55481;48.764;8.936;2024-02-23T15:55:20;95110;;;6.1;79
68489;BME280;55481;48.764;8.936;2024-02-23T15:57:51;95100;;;6.1;78.5
68489;BME280;55481;48.764;8.936;2024-02-23T16:00:22;95100;;;6.3;78
68489;BME280;55481;48.764;8.936;2024-02-23T16:03:01;95090;;;6.4;78
68489;BME280;55481;48.764;8.936;2024-02-23T16:07:55;95080;;;7.2;76
68489;BME280;55481;48.764;8.936;2024-02-23T16:10:26;95080;;;7.1;76
68489;BME280;55481;48.764;8.936;2024-02-23T16:12:57;95080;;;6.8;77
68489;BME280;55481;48.764;8.936;2024-02-23T16:15:28;95090;;;6.5;77.5
68489;BME280;55481;48.764;8.936;2024-02-23T16:17:59;95090;;;6.5;77.5
68489;BME280;55481;48.764;8.936;2024-02-23T16:20:30;95080;;;6.3;77.5
68489;BME280;55481;48.764;8.936;2024-02-23T16:23:01;95080;;;6.2;78
68489;BME280;55481;48.764;8.936;2024-02-23T16:25:32;95080;;;6.2;77.5
68489;BME280;55481;48.764;8.936;2024-02-23T16:28:02;95080;;;6.1;77.5
68489;BME280;55481;48.764;8.936;2024-02-23T16:30:33;95080;;;6.1;77
68489;BME280;55481;48.764;8.936;2024-02-23T16:33:11;95080;;;6;77.5
68489;BME280;55481;48.764;8.936;2024-02-23T16:38:06;95080;;;6.2;77
68489;BME280;55481;48.764;8.936;2024-02-23T16:43:14;95080;;;6.1;77
68489;BME280;55481;48.764;8.936;2024-02-23T16:45:44;95080;;;6;77.5
68489;BME280;55481;48.764;8.936;2024-02-23T16:50:39;95080;;;6;77
68489;BME280;55481;48.764;8.936;2024-02-23T16:53:10;95080;;;6;77
68489;BME280;55481;48.764;8.936;2024-02-23T16:55:40;95080;;;6;77
68489;BME280;55481;48.764;8.936;2024-02-23T17:00:48;95080;;;6.1;76.5
68489;BME280;55481;48.764;8.936;2024-02-23T17:06:02;95080;;;5.9;76.5
68489;BME280;55481;48.764;8.936;2024-02-23T17:08:19;95090;;;5.9;76.5
68489;BME280;55481;48.764;8.936;2024-02-23T17:13:20;95090;;;5.8;77
68489;BME280;55481;48.764;8.936;2024-02-23T17:18:36;95090;;;5.8;76.5
68489;BME280;55481;48.764;8.936;2024-02-23T17:23:36;95090;;;5.8;76.5
68489;BME280;55481;48.764;8.936;2024-02-23T17:26:07;95100;;;5.8;76.5
68489;BME280;55481;48.764;8.936;2024-02-23T17:28:31;95100;;;5.8;76.5
68489;BME280;55481;48.764;8.936;2024-02-23T17:31:05;95100;;;5.8;76.5
68489;BME280;55481;48.764;8.936;2024-02-23T17:33:36;95110;;;5.7;76.5
68489;BME280;55481;48.764;8.936;2024-02-23T17:35:57;95110;;;5.7;76.5
68489;BME280;55481;48.764;8.936;2024-02-23T17:38:27;95110;;;5.7;76.5
68489;BME280;55481;48.764;8.936;2024-02-23T17:40:56;95120;;;5.7;76.5
68489;BME280;55481;48.764;8.936;2024-02-23T17:43:27;95120;;;5.7;76
68489;BME280;55481;48.764;8.936;2024-02-23T17:45:46;95130;;;5.7;76.5
68489;BME280;55481;48.764;8.936;2024-02-23T17:48:17;95130;;;5.7;76.5
68489;BME280;55481;48.764;8.936;2024-02-23T17:55:48;95130;;;5.6;76.5
68489;BME280;55481;48.764;8.936;2024-02-23T17:58:19;95130;;;5.6;76.5
68489;BME280;55481;48.764;8.936;2024-02-23T18:00:49;95140;;;5.6;76
68489;BME280;55481;48.764;8.936;2024-02-23T18:03:31;95140;;;5.7;76
68489;BME280;55481;48.764;8.936;2024-02-23T18:06:01;95150;;;5.6;76
68489;BME280;55481;48.764;8.936;2024-02-23T18:10:50;95150;;;5.7;76
68489;BME280;55481;48.764;8.936;2024-02-23T18:13:21;95160;;;5.7;76
68489;BME280;55481;48.764;8.936;2024-02-23T18:23:23;95150;;;5.5;76
68489;BME280;55481;48.764;8.936;2024-02-23T18:25:54;95140;;;5.4;76
68489;BME280;55481;48.764;8.936;2024-02-23T18:31:26;95140;;;5.4;76.5
68489;BME280;55481;48.764;8.936;2024-02-23T18:33:48;95150;;;5.4;76
68489;BME280;55481;48.764;8.936;2024-02-23T18:36:18;95150;;;5.3;76
68489;BME280;55481;48.764;8.936;2024-02-23T18:38:49;95150;;;5.2;76
68489;BME280;55481;48.764;8.936;2024-02-23T18:41:20;95150;;;5.2;76
68489;BME280;55481;48.764;8.936;2024-02-23T18:46:09;95150;;;5.2;76.5
68489;BME280;55481;48.764;8.936;2024-02-23T18:48:40;95150;;;5.2;76.5
68489;BME280;55481;48.764;8.936;2024-02-23T18:59:11;95150;;;5.3;76
68489;BME280;55481;48.764;8.936;2024-02-23T19:01:23;95140;;;5.2;76
68489;BME280;55481;48.764;8.936;2024-02-23T19:06:13;95140;;;5.2;76